Byron, New York
Current Conditions -  °F | °C
As of 1:35 AM on Thursday 27 Nov 2014 (Local Time) from KROC Reporting Station
Light Snow Light Snow  
Wind Chill: 23°   Ceiling: 2800
Heat Index: 29°   Visibility: 6mi
Dew Point: 27°   Wind: 6mph
Humidity: 92%   Direction: 310°NW
Pressure: 30.04"   Gusts: NA
Location:  43.08°N, 78.06°W
Report Text: KROC 270635Z 31005KT 6SM -SN BR BKN028 OVC038 M02/M03 A3004 RMK AO2 P0001 T10171028
Loading
Personal Weather Stations






























Interactive Weather Map New forecast layout! Learn more

10-Day Weather Forecast

Advertisements
Track Severe Weather on mobile